Time;durP1;ratioP1;P1;durP2;ratioP2;P2;SDS_P1;SDS_P2;PMS_P1;PMS_P2;Temp;Humidity;BMP_temperature;BMP_pressure;BME280_temperature;BME280_humidity;BME280_pressure;Samples;Min_cycle;Max_cycle;Signal;HPM_P1;HPM_P2
2023/05/26 00:02:06;;;;;;;;;;;;;;;;;;7368930;19;1614;-61
2023/05/26 00:04:35;;;;;;;;;;;;;;;;;;7368759;19;1686;-63
2023/05/26 00:07:03;;;;;;;;;;;;;;;;;;7367775;19;1724;-63
2023/05/26 00:09:32;;;;;;;;;;;;;;;;;;7364821;19;1810;-63
2023/05/26 00:12:00;;;;;;;;;;;;;;;;;;7368264;19;1547;-63
2023/05/26 00:14:29;;;;;;;;;;;;;;;;;;7367375;19;1845;-63
2023/05/26 00:16:57;;;;;;;;;;;;;;;;;;7368756;19;1660;-62
2023/05/26 00:19:25;;;;;;;;;;;;;;;;;;7364590;19;1737;-63
2023/05/26 00:21:53;;;;;;;;;;;;;;;;;;7368337;19;2110;-61
2023/05/26 00:24:21;;;;;;;;;;;;;;;;;;7368822;19;1680;-63
2023/05/26 00:26:49;;;;;;;;;;;;;;;;;;7367473;19;1821;-61
2023/05/26 00:29:18;;;;;;;;;;;;;;;;;;7362570;19;1278;-61
2023/05/26 00:31:46;;;;;;;;;;;;;;;;;;7367557;19;1702;-63
2023/05/26 00:34:14;;;;;;;;;;;;;;;;;;7367479;19;1876;-61
2023/05/26 00:36:42;;;;;;;;;;;;;;;;;;7364206;19;1938;-61
2023/05/26 00:39:10;;;;;;;;;;;;;;;;;;7365655;19;1647;-62
2023/05/26 00:41:38;;;;;;;;;;;;;;;;;;7365556;19;2017;-61
2023/05/26 00:44:06;;;;;;;;;;;;;;;;;;7362771;19;2001;-63
2023/05/26 00:46:34;;;;;;;;;;;;;;;;;;7367937;19;1914;-63
2023/05/26 00:49:03;;;;;;;;;;;;;;;;;;7365666;19;1779;-64
2023/05/26 00:51:31;;;;;;;;;;;;;;;;;;7367340;19;1769;-63
2023/05/26 00:53:59;;;;;;;;;;;;;;;;;;7367912;19;1736;-62
2023/05/26 00:56:27;;;;;;;;;;;;;;;;;;7363548;19;2003;-63
2023/05/26 00:58:55;;;;;;;;;;;;;;;;;;7364819;19;2087;-62
2023/05/26 01:01:25;;;;;;;;;;;;;;;;;;7367052;19;2171;-63
2023/05/26 01:03:53;;;;;;;;;;;;;;;;;;7367498;19;1876;-62
2023/05/26 01:06:22;;;;;;;;;;;;;;;;;;7365594;19;2079;-62
2023/05/26 01:08:50;;;;;;;;;;;;;;;;;;7363369;19;1921;-62
2023/05/26 01:11:18;;;;;;;;;;;;;;;;;;7366854;19;1936;-63
2023/05/26 01:13:46;;;;;;;;;;;;;;;;;;7365614;19;1713;-62
2023/05/26 01:16:14;;;;;;;;;;;;;;;;;;7364871;19;1861;-62
2023/05/26 01:18:43;;;;;;;;;;;;;;;;;;7364216;19;1706;-61
2023/05/26 01:21:12;;;;;;;;;;;;;;;;;;7367890;19;1697;-63
2023/05/26 01:23:41;;;;;;;;;;;;;;;;;;7367465;19;1869;-62
2023/05/26 01:26:10;;;;;;;;;;;;;;;;;;7368991;19;1643;-63
2023/05/26 01:28:38;;;;;;;;;;;;;;;;;;7365779;19;1828;-63
2023/05/26 01:31:06;;;;;;;;;;;;;;;;;;7367256;19;1877;-63
2023/05/26 01:33:35;;;;;;;;;;;;;;;;;;7365262;19;2070;-62
2023/05/26 01:36:05;;;;;;;;;;;;;;;;;;7363463;19;1842;-63
2023/05/26 01:38:33;;;;;;;;;;;;;;;;;;7366188;19;1681;-62
2023/05/26 01:41:01;;;;;;;;;;;;;;;;;;7366409;19;2008;-63
2023/05/26 01:43:29;;;;;;;;;;;;;;;;;;7366357;19;1766;-63
2023/05/26 01:45:58;;;;;;;;;;;;;;;;;;7368000;19;1677;-62
2023/05/26 01:48:26;;;;;;;;;;;;;;;;;;7363397;19;1924;-64
2023/05/26 01:50:54;;;;;;;;;;;;;;;;;;7365943;19;2217;-63
2023/05/26 01:53:23;;;;;;;;;;;;;;;;;;7366538;19;1583;-63
2023/05/26 01:55:51;;;;;;;;;;;;;;;;;;7371585;19;1941;-62
2023/05/26 01:58:19;;;;;;;;;;;;;;;;;;7370109;19;1838;-64
2023/05/26 02:00:47;;;;;;;;;;;;;;;;;;7370303;19;2145;-63
2023/05/26 02:03:15;;;;;;;;;;;;;;;;;;7371549;19;2103;-64
2023/05/26 02:05:44;;;;;;;;;;;;;;;;;;7368703;19;1965;-61
2023/05/26 02:08:12;;;;;;;;;;;;;;;;;;7370933;19;1827;-63
2023/05/26 02:10:40;;;;;;;;;;;;;;;;;;7370165;19;1834;-63
2023/05/26 02:13:08;;;;;;;;;;;;;;;;;;7371329;19;1658;-63
2023/05/26 02:15:37;;;;;;;;;;;;;;;;;;7370747;19;2076;-60
2023/05/26 02:18:05;;;;;;;;;;;;;;;;;;7368795;19;2082;-61
2023/05/26 02:20:33;;;;;;;;;;;;;;;;;;7368785;19;1953;-61
2023/05/26 02:23:02;;;;;;;;;;;;;;;;;;7371470;19;1831;-62
2023/05/26 02:25:30;;;;;;;;;;;;;;;;;;7370480;19;1829;-62
2023/05/26 02:27:58;;;;;;;;;;;;;;;;;;7370206;19;1623;-63
2023/05/26 02:30:26;;;;;;;;;;;;;;;;;;7370694;19;2091;-62
2023/05/26 02:32:54;;;;;;;;;;;;;;;;;;7370486;19;1775;-63
2023/05/26 02:35:22;;;;;;;;;;;;;;;;;;7370420;19;1834;-62
2023/05/26 02:37:52;;;;;;;;;;;;;;;;;;7369229;19;1882;-63
2023/05/26 02:40:20;;;;;;;;;;;;;;;;;;7372678;19;1915;-62
2023/05/26 02:42:48;;;;;;;;;;;;;;;;;;7371736;19;1646;-62
2023/05/26 02:45:16;;;;;;;;;;;;;;;;;;7370523;19;1812;-63
2023/05/26 02:47:44;;;;;;;;;;;;;;;;;;7370333;19;2079;-62
2023/05/26 02:50:13;;;;;;;;;;;;;;;;;;7368885;19;1832;-63
2023/05/26 02:52:41;;;;;;;;;;;;;;;;;;7369466;19;1927;-63
2023/05/26 02:55:11;;;;;;;;;;;;;;;;;;7371307;19;1863;-63
2023/05/26 02:57:39;;;;;;;;;;;;;;;;;;7367201;19;1746;-62
2023/05/26 03:00:10;;;;;;;;;;;;;;;;;;7371353;19;1503;-59
2023/05/26 03:02:39;;;;;;;;;;;;;;;;;;7371230;19;1922;-62
2023/05/26 03:05:08;;;;;;;;;;;;;;;;;;7369453;19;1798;-57
2023/05/26 03:07:36;;;;;;;;;;;;;;;;;;7367256;19;2119;-60
2023/05/26 03:10:05;;;;;;;;;;;;;;;;;;7370429;19;1696;-62
2023/05/26 03:12:33;;;;;;;;;;;;;;;;;;7369062;19;1762;-59
2023/05/26 03:15:01;;;;;;;;;;;;;;;;;;7369714;19;1919;-59
2023/05/26 03:17:31;;;;;;;;;;;;;;;;;;7367154;19;2080;-61
2023/05/26 03:19:59;;;;;;;;;;;;;;;;;;7370127;19;1946;-59
2023/05/26 03:22:27;;;;;;;;;;;;;;;;;;7369839;19;1314;-58
2023/05/26 03:24:55;;;;;;;;;;;;;;;;;;7368256;19;1666;-58
2023/05/26 03:27:27;;;;;;;;;;;;;;;;;;7366432;19;1872;-59
2023/05/26 03:29:56;;;;;;;;;;;;;;;;;;7367328;19;1742;-59
2023/05/26 03:32:24;;;;;;;;;;;;;;;;;;7367328;19;1783;-62
2023/05/26 03:34:52;;;;;;;;;;;;;;;;;;7371268;19;1613;-62
2023/05/26 03:37:21;;;;;;;;;;;;;;;;;;7364021;19;1948;-59
2023/05/26 03:39:49;;;;;;;;;;;;;;;;;;7368187;19;1854;-61
2023/05/26 03:42:17;;;;;;;;;;;;;;;;;;7366281;19;1812;-61
2023/05/26 03:44:47;;;;;;;;;;;;;;;;;;7367782;19;1844;-65
2023/05/26 03:47:15;;;;;;;;;;;;;;;;;;7369668;19;1719;-61
2023/05/26 03:49:43;;;;;;;;;;;;;;;;;;7368009;19;1719;-58
2023/05/26 03:52:12;;;;;;;;;;;;;;;;;;7367852;19;1668;-63
2023/05/26 03:54:40;;;;;;;;;;;;;;;;;;7365167;19;1779;-63
2023/05/26 03:57:08;;;;;;;;;;;;;;;;;;7364909;19;1861;-63
2023/05/26 03:59:36;;;;;;;;;;;;;;;;;;7364620;19;1790;-61
2023/05/26 04:02:05;;;;;;;;;;;;;;;;;;7365364;19;1907;-63
2023/05/26 04:04:34;;;;;;;;;;;;;;;;;;7366370;19;1709;-63
2023/05/26 04:07:03;;;;;;;;;;;;;;;;;;7369031;19;1476;-63
2023/05/26 04:09:31;;;;;;;;;;;;;;;;;;7362748;19;2013;-61
2023/05/26 04:12:00;;;;;;;;;;;;;;;;;;7365182;19;1882;-62
2023/05/26 04:14:29;;;;;;;;;;;;;;;;;;7367901;19;1745;-63
2023/05/26 04:16:57;;;;;;;;;;;;;;;;;;7365019;19;1986;-62
2023/05/26 04:19:25;;;;;;;;;;;;;;;;;;7361580;19;1843;-63
2023/05/26 04:21:53;;;;;;;;;;;;;;;;;;7366146;19;1719;-63
2023/05/26 04:24:21;;;;;;;;;;;;;;;;;;7365359;19;1792;-62
2023/05/26 04:26:52;;;;;;;;;;;;;;;;;;7368092;19;1637;-61
2023/05/26 04:29:39;;;;;;;;;;;;;;;;;;7363514;19;1787;-63
2023/05/26 04:32:24;;;;;;;;;;;;;;;;;;7367225;19;1631;-61
2023/05/26 04:35:13;;;;;;;;;;;;;;;;;;7363564;19;1949;-63
2023/05/26 04:37:42;;;;;;;;;;;;;;;;;;7365020;19;1856;-63
2023/05/26 04:40:11;;;;;;;;;;;;;;;;;;7366063;19;2006;-61
2023/05/26 04:42:39;;;;;;;;;;;;;;;;;;7365094;19;1796;-62
2023/05/26 04:45:08;;;;;;;;;;;;;;;;;;7365490;19;1865;-62
2023/05/26 04:47:37;;;;;;;;;;;;;;;;;;7364578;19;1659;-62
2023/05/26 04:50:06;;;;;;;;;;;;;;;;;;7365598;19;1970;-62
2023/05/26 04:52:34;;;;;;;;;;;;;;;;;;7367217;19;1607;-62
2023/05/26 04:55:03;;;;;;;;;;;;;;;;;;7366444;19;1972;-62
2023/05/26 04:57:31;;;;;;;;;;;;;;;;;;7363239;19;1849;-63
2023/05/26 04:59:59;;;;;;;;;;;;;;;;;;7364990;19;2082;-62
2023/05/26 05:02:27;;;;;;;;;;;;;;;;;;7365752;19;1840;-63
2023/05/26 05:05:07;;;;;;;;;;;;;;;;;;7366033;19;1774;-62
2023/05/26 05:07:36;;;;;;;;;;;;;;;;;;7364528;19;1849;-63
2023/05/26 05:10:04;;;;;;;;;;;;;;;;;;7365829;19;1942;-64
2023/05/26 05:12:34;;;;;;;;;;;;;;;;;;7364264;19;2139;-63
2023/05/26 05:15:04;;;;;;;;;;;;;;;;;;7362807;19;1809;-64
2023/05/26 05:17:33;;;;;;;;;;;;;;;;;;7358137;19;2087;-63
2023/05/26 05:20:01;;;;;;;;;;;;;;;;;;7363897;19;2077;-63
2023/05/26 05:22:29;;;;;;;;;;;;;;;;;;7363236;19;1885;-61
2023/05/26 05:24:57;;;;;;;;;;;;;;;;;;7363624;19;1913;-65
2023/05/26 05:27:25;;;;;;;;;;;;;;;;;;7366066;19;1926;-63
2023/05/26 05:29:53;;;;;;;;;;;;;;;;;;7371779;19;1717;-60
2023/05/26 05:32:21;;;;;;;;;;;;;;;;;;7369560;19;1720;-61
2023/05/26 05:34:50;;;;;;;;;;;;;;;;;;7370586;19;1952;-63
2023/05/26 05:37:19;;;;;;;;;;;;;;;;;;7371655;19;1878;-62
2023/05/26 05:39:47;;;;;;;;;;;;;;;;;;7368981;19;819;-63
2023/05/26 05:42:15;;;;;;;;;;;;;;;;;;7372227;19;1593;-63
2023/05/26 05:44:43;;;;;;;;;;;;;;;;;;7369085;19;851;-63
2023/05/26 05:47:11;;;;;;;;;;;;;;;;;;7369720;19;771;-63
2023/05/26 05:49:58;;;;;;;;;;;;;;;;;;7369578;19;1720;-60
2023/05/26 05:52:27;;;;;;;;;;;;;;;;;;7368831;19;2167;-61
2023/05/26 05:54:55;;;;;;;;;;;;;;;;;;7371017;19;1706;-62
2023/05/26 05:57:23;;;;;;;;;;;;;;;;;;7368581;19;2154;-62
2023/05/26 05:59:52;;;;;;;;;;;;;;;;;;7367858;19;2038;-62
2023/05/26 06:02:20;;;;;;;;;;;;;;;;;;7369390;19;1888;-61
2023/05/26 06:04:49;;;;;;;;;;;;;;;;;;7371266;19;1936;-60
2023/05/26 06:07:17;;;;;;;;;;;;;;;;;;7372958;19;1497;-62
2023/05/26 06:09:45;;;;;;;;;;;;;;;;;;7367590;19;786;-61
2023/05/26 06:12:14;;;;;;;;;;;;;;;;;;7367874;19;867;-62
2023/05/26 06:14:43;;;;;;;;;;;;;;;;;;7367789;19;905;-61
2023/05/26 06:17:12;;;;;;;;;;;;;;;;;;7368355;19;1846;-64
2023/05/26 06:19:40;;;;;;;;;;;;;;;;;;7364905;19;1261;-64
2023/05/26 06:22:08;;;;;;;;;;;;;;;;;;7366836;19;766;-63
2023/05/26 06:24:36;;;;;;;;;;;;;;;;;;7368294;19;874;-62
2023/05/26 06:27:05;;;;;;;;;;;;;;;;;;7367354;19;894;-62
2023/05/26 06:29:33;;;;;;;;;;;;;;;;;;7365027;19;1340;-63
2023/05/26 06:32:01;;;;;;;;;;;;;;;;;;7367386;19;810;-64
2023/05/26 06:34:33;;;;;;;;;;;;;;;;;;7367758;19;833;-62
2023/05/26 06:37:01;;;;;;;;;;;;;;;;;;7366549;19;1842;-63
2023/05/26 06:39:30;;;;;;;;;;;;;;;;;;7362934;19;1281;-64
2023/05/26 06:41:58;;;;;;;;;;;;;;;;;;7367075;19;775;-62
2023/05/26 06:44:26;;;;;;;;;;;;;;;;;;7367101;19;851;-63
2023/05/26 06:46:54;;;;;;;;;;;;;;;;;;7367597;19;807;-62
2023/05/26 06:49:30;;;;;;;;;;;;;;;;;;7363786;19;1314;-63
2023/05/26 06:52:07;;;;;;;;;;;;;;;;;;7366578;19;744;-62
2023/05/26 06:54:35;;;;;;;;;;;;;;;;;;7366956;19;854;-63
2023/05/26 06:57:03;;;;;;;;;;;;;;;;;;7366552;19;1867;-58
2023/05/26 06:59:32;;;;;;;;;;;;;;;;;;7363975;19;1242;-60
2023/05/26 07:02:01;;;;;;;;;;;;;;;;;;7367849;19;808;-59
2023/05/26 07:04:29;;;;;;;;;;;;;;;;;;7366688;19;783;-63
2023/05/26 07:06:57;;;;;;;;;;;;;;;;;;7367120;19;788;-63
2023/05/26 07:09:25;;;;;;;;;;;;;;;;;;7363627;19;1314;-62
2023/05/26 07:12:02;;;;;;;;;;;;;;;;;;7365891;19;767;-57
2023/05/26 07:14:48;;;;;;;;;;;;;;;;;;7367103;19;760;-60
2023/05/26 07:17:17;;;;;;;;;;;;;;;;;;7365290;19;1868;-64
2023/05/26 07:19:47;;;;;;;;;;;;;;;;;;7366347;19;751;-60
2023/05/26 07:22:15;;;;;;;;;;;;;;;;;;7367357;19;818;-61
2023/05/26 07:24:56;;;;;;;;;;;;;;;;;;7366559;19;862;-60
2023/05/26 07:27:31;;;;;;;;;;;;;;;;;;7366581;19;1388;-58
2023/05/26 07:30:00;;;;;;;;;;;;;;;;;;7366140;19;833;-60
2023/05/26 07:32:28;;;;;;;;;;;;;;;;;;7365867;19;800;-61
2023/05/26 07:34:56;;;;;;;;;;;;;;;;;;7366519;19;805;-61
2023/05/26 07:37:24;;;;;;;;;;;;;;;;;;7365238;19;1838;-60
2023/05/26 07:39:52;;;;;;;;;;;;;;;;;;7367497;19;864;-61
2023/05/26 07:42:20;;;;;;;;;;;;;;;;;;7366358;19;818;-63
2023/05/26 07:44:48;;;;;;;;;;;;;;;;;;7366613;19;794;-63
2023/05/26 07:47:17;;;;;;;;;;;;;;;;;;7366646;19;819;-63
2023/05/26 07:49:45;;;;;;;;;;;;;;;;;;7363214;19;1364;-63
2023/05/26 07:52:13;;;;;;;;;;;;;;;;;;7364232;19;849;-63
2023/05/26 07:54:41;;;;;;;;;;;;;;;;;;7366650;19;805;-63
2023/05/26 07:57:09;;;;;;;;;;;;;;;;;;7366839;19;1842;-63
2023/05/26 07:59:37;;;;;;;;;;;;;;;;;;7363342;19;1310;-62
2023/05/26 08:02:05;;;;;;;;;;;;;;;;;;7365494;19;806;-62
2023/05/26 08:04:33;;;;;;;;;;;;;;;;;;7365539;19;832;-61
2023/05/26 08:07:02;;;;;;;;;;;;;;;;;;7366714;19;722;-62
2023/05/26 08:09:30;;;;;;;;;;;;;;;;;;7362721;19;1332;-62
2023/05/26 08:11:58;;;;;;;;;;;;;;;;;;7366794;19;828;-61
2023/05/26 08:14:26;;;;;;;;;;;;;;;;;;7366206;19;809;-63
2023/05/26 08:16:54;;;;;;;;;;;;;;;;;;7366186;19;1873;-62
2023/05/26 08:19:23;;;;;;;;;;;;;;;;;;7363199;19;1293;-62
2023/05/26 08:21:51;;;;;;;;;;;;;;;;;;7366424;19;826;-64
2023/05/26 08:24:22;;;;;;;;;;;;;;;;;;7365998;19;813;-60
2023/05/26 08:26:50;;;;;;;;;;;;;;;;;;7365524;19;744;-63
2023/05/26 08:29:18;;;;;;;;;;;;;;;;;;7362408;19;1229;-63
2023/05/26 08:31:46;;;;;;;;;;;;;;;;;;7366112;19;793;-63
2023/05/26 08:34:15;;;;;;;;;;;;;;;;;;7366366;19;814;-63
2023/05/26 08:36:43;;;;;;;;;;;;;;;;;;7364536;19;1849;-62
2023/05/26 08:39:11;;;;;;;;;;;;;;;;;;7362210;19;1331;-62
2023/05/26 08:41:39;;;;;;;;;;;;;;;;;;7364752;19;813;-60
2023/05/26 08:44:07;;;;;;;;;;;;;;;;;;7364727;19;845;-62
2023/05/26 08:46:36;;;;;;;;;;;;;;;;;;7363889;19;859;-63
2023/05/26 08:49:04;;;;;;;;;;;;;;;;;;7361659;19;1307;-63
2023/05/26 08:51:32;;;;;;;;;;;;;;;;;;7364083;19;778;-62
2023/05/26 08:54:00;;;;;;;;;;;;;;;;;;7364884;19;818;-64
2023/05/26 08:56:28;;;;;;;;;;;;;;;;;;7364526;19;809;-62
2023/05/26 08:59:00;;;;;;;;;;;;;;;;;;7360695;19;1830;-62
2023/05/26 09:01:28;;;;;;;;;;;;;;;;;;7364030;19;736;-63
2023/05/26 09:03:56;;;;;;;;;;;;;;;;;;7364511;19;821;-63
2023/05/26 09:06:24;;;;;;;;;;;;;;;;;;7362856;19;760;-63
2023/05/26 09:08:53;;;;;;;;;;;;;;;;;;7361136;19;1703;-64
2023/05/26 09:11:21;;;;;;;;;;;;;;;;;;7363902;19;828;-63
2023/05/26 09:13:52;;;;;;;;;;;;;;;;;;7361056;19;1032;-63
2023/05/26 09:16:20;;;;;;;;;;;;;;;;;;7363970;19;842;-62
2023/05/26 09:18:48;;;;;;;;;;;;;;;;;;7360459;19;1844;-61
2023/05/26 09:21:16;;;;;;;;;;;;;;;;;;7363103;19;828;-61
2023/05/26 09:23:44;;;;;;;;;;;;;;;;;;7363808;19;816;-61
2023/05/26 09:26:12;;;;;;;;;;;;;;;;;;7364084;19;806;-62
2023/05/26 09:28:40;;;;;;;;;;;;;;;;;;7361339;19;1267;-62
2023/05/26 09:31:08;;;;;;;;;;;;;;;;;;7363695;19;850;-63
2023/05/26 09:33:37;;;;;;;;;;;;;;;;;;7363127;19;828;-61
2023/05/26 09:36:05;;;;;;;;;;;;;;;;;;7363335;19;763;-62
2023/05/26 09:38:33;;;;;;;;;;;;;;;;;;7361683;19;1845;-63
2023/05/26 09:41:01;;;;;;;;;;;;;;;;;;7363481;19;846;-61
2023/05/26 09:43:29;;;;;;;;;;;;;;;;;;7363262;19;838;-61
2023/05/26 09:45:57;;;;;;;;;;;;;;;;;;7363313;19;829;-61
2023/05/26 09:48:25;;;;;;;;;;;;;;;;;;7360759;19;1347;-62
2023/05/26 09:50:53;;;;;;;;;;;;;;;;;;7362482;19;865;-62
2023/05/26 09:53:21;;;;;;;;;;;;;;;;;;7362577;19;773;-62
2023/05/26 09:55:50;;;;;;;;;;;;;;;;;;7362869;19;818;-63
2023/05/26 09:58:18;;;;;;;;;;;;;;;;;;7361004;19;1849;-63
2023/05/26 10:00:46;;;;;;;;;;;;;;;;;;7363214;19;778;-63
2023/05/26 10:03:14;;;;;;;;;;;;;;;;;;7362513;19;853;-62
2023/05/26 10:05:45;;;;;;;;;;;;;;;;;;7362543;19;857;-63
2023/05/26 10:08:14;;;;;;;;;;;;;;;;;;7360872;19;1341;-61
2023/05/26 10:10:42;;;;;;;;;;;;;;;;;;7362787;19;837;-61
2023/05/26 10:13:10;;;;;;;;;;;;;;;;;;7362224;19;821;-62
2023/05/26 10:15:38;;;;;;;;;;;;;;;;;;7367588;19;766;-62
2023/05/26 10:18:06;;;;;;;;;;;;;;;;;;7367224;19;1842;-63
2023/05/26 10:20:36;;;;;;;;;;;;;;;;;;7368722;19;774;-62
2023/05/26 10:23:04;;;;;;;;;;;;;;;;;;7369228;19;912;-62
2023/05/26 10:25:32;;;;;;;;;;;;;;;;;;7368258;19;734;-62
2023/05/26 10:28:00;;;;;;;;;;;;;;;;;;7367606;19;1275;-61
2023/05/26 10:30:28;;;;;;;;;;;;;;;;;;7368521;19;755;-62
2023/05/26 10:32:57;;;;;;;;;;;;;;;;;;7369392;19;817;-60
2023/05/26 10:35:25;;;;;;;;;;;;;;;;;;7369046;19;816;-63
2023/05/26 10:37:53;;;;;;;;;;;;;;;;;;7368151;19;1845;-63
2023/05/26 10:40:21;;;;;;;;;;;;;;;;;;7369355;19;786;-63
2023/05/26 10:42:49;;;;;;;;;;;;;;;;;;7368618;19;801;-62
2023/05/26 10:45:17;;;;;;;;;;;;;;;;;;7369967;19;817;-62
2023/05/26 10:47:46;;;;;;;;;;;;;;;;;;7368032;19;1288;-62
2023/05/26 10:50:14;;;;;;;;;;;;;;;;;;7367760;19;818;-63
2023/05/26 10:52:42;;;;;;;;;;;;;;;;;;7368347;19;801;-62
2023/05/26 10:55:11;;;;;;;;;;;;;;;;;;7368628;19;786;-62
2023/05/26 10:57:40;;;;;;;;;;;;;;;;;;7366900;19;1837;-62
2023/05/26 11:00:10;;;;;;;;;;;;;;;;;;7368158;19;739;-63
2023/05/26 11:02:38;;;;;;;;;;;;;;;;;;7367536;19;868;-63
2023/05/26 11:05:07;;;;;;;;;;;;;;;;;;7368320;19;829;-62
2023/05/26 11:07:35;;;;;;;;;;;;;;;;;;7366870;19;1335;-63
2023/05/26 11:10:05;;;;;;;;;;;;;;;;;;7364844;19;1269;-64
2023/05/26 11:12:33;;;;;;;;;;;;;;;;;;7367643;19;729;-63
2023/05/26 11:15:01;;;;;;;;;;;;;;;;;;7366841;19;784;-67
2023/05/26 11:17:30;;;;;;;;;;;;;;;;;;7366394;19;1320;-61
2023/05/26 11:19:58;;;;;;;;;;;;;;;;;;7364905;19;851;-62
2023/05/26 11:22:26;;;;;;;;;;;;;;;;;;7366749;19;873;-61
2023/05/26 11:24:54;;;;;;;;;;;;;;;;;;7366953;19;783;-63
2023/05/26 11:27:22;;;;;;;;;;;;;;;;;;7366814;19;1348;-61
2023/05/26 11:29:51;;;;;;;;;;;;;;;;;;7366211;19;767;-60
2023/05/26 11:32:19;;;;;;;;;;;;;;;;;;7365455;19;806;-60
2023/05/26 11:34:47;;;;;;;;;;;;;;;;;;7366572;19;802;-61
2023/05/26 11:37:15;;;;;;;;;;;;;;;;;;7367029;19;810;-61
2023/05/26 11:39:44;;;;;;;;;;;;;;;;;;7366883;19;1842;-60
2023/05/26 11:42:12;;;;;;;;;;;;;;;;;;7366688;19;846;-60
2023/05/26 11:44:40;;;;;;;;;;;;;;;;;;7366904;19;885;-60
2023/05/26 11:47:14;;;;;;;;;;;;;;;;;;7365597;19;791;-62
2023/05/26 11:49:42;;;;;;;;;;;;;;;;;;7363949;19;1359;-62
2023/05/26 11:52:10;;;;;;;;;;;;;;;;;;7366402;19;817;-62
2023/05/26 11:54:38;;;;;;;;;;;;;;;;;;7365941;19;778;-60
2023/05/26 11:57:06;;;;;;;;;;;;;;;;;;7366857;19;861;-62
2023/05/26 11:59:34;;;;;;;;;;;;;;;;;;7361822;19;1845;-63
2023/05/26 12:02:03;;;;;;;;;;;;;;;;;;7366784;19;770;-63
2023/05/26 12:04:31;;;;;;;;;;;;;;;;;;7366506;19;846;-63
2023/05/26 12:06:59;;;;;;;;;;;;;;;;;;7366165;19;845;-62
2023/05/26 12:09:27;;;;;;;;;;;;;;;;;;7362714;19;1288;-63
2023/05/26 12:11:57;;;;;;;;;;;;;;;;;;7364605;19;1023;-62
2023/05/26 12:14:25;;;;;;;;;;;;;;;;;;7366185;19;1004;-63
2023/05/26 12:16:55;;;;;;;;;;;;;;;;;;7366071;19;878;-63
2023/05/26 12:19:23;;;;;;;;;;;;;;;;;;7362231;19;1842;-60
2023/05/26 12:21:51;;;;;;;;;;;;;;;;;;7365163;19;775;-61
2023/05/26 12:24:19;;;;;;;;;;;;;;;;;;7365496;19;834;-60
2023/05/26 12:26:47;;;;;;;;;;;;;;;;;;7364826;19;866;-62
2023/05/26 12:29:15;;;;;;;;;;;;;;;;;;7362457;19;1296;-62
2023/05/26 12:31:43;;;;;;;;;;;;;;;;;;7365443;19;810;-62
2023/05/26 12:34:12;;;;;;;;;;;;;;;;;;7364111;19;1253;-63
2023/05/26 12:36:40;;;;;;;;;;;;;;;;;;7363907;19;779;-62
2023/05/26 12:39:08;;;;;;;;;;;;;;;;;;7362115;19;1845;-62
2023/05/26 12:41:36;;;;;;;;;;;;;;;;;;7365500;19;814;-62
2023/05/26 12:44:04;;;;;;;;;;;;;;;;;;7365144;19;812;-61
2023/05/26 12:46:33;;;;;;;;;;;;;;;;;;7364761;19;853;-59
2023/05/26 12:49:01;;;;;;;;;;;;;;;;;;7363249;19;1339;-60
2023/05/26 12:51:29;;;;;;;;;;;;;;;;;;7364953;19;822;-58
2023/05/26 12:53:57;;;;;;;;;;;;;;;;;;7364973;19;889;-60
2023/05/26 12:56:26;;;;;;;;;;;;;;;;;;7364905;19;754;-58
2023/05/26 12:58:54;;;;;;;;;;;;;;;;;;7361902;19;1861;-63
2023/05/26 13:01:22;;;;;;;;;;;;;;;;;;7364044;19;779;-59
2023/05/26 13:03:50;;;;;;;;;;;;;;;;;;7364900;19;855;-60
2023/05/26 13:06:18;;;;;;;;;;;;;;;;;;7364707;19;806;-61
2023/05/26 13:08:46;;;;;;;;;;;;;;;;;;7361658;19;1247;-62
2023/05/26 13:11:15;;;;;;;;;;;;;;;;;;7364397;19;918;-62
2023/05/26 13:13:43;;;;;;;;;;;;;;;;;;7363698;19;825;-60
2023/05/26 13:16:12;;;;;;;;;;;;;;;;;;7364069;19;801;-61
2023/05/26 13:18:40;;;;;;;;;;;;;;;;;;7362595;19;1854;-62
2023/05/26 13:21:08;;;;;;;;;;;;;;;;;;7363393;19;824;-60
2023/05/26 13:23:37;;;;;;;;;;;;;;;;;;7362629;19;819;-61
2023/05/26 13:26:06;;;;;;;;;;;;;;;;;;7362526;19;815;-62
2023/05/26 13:28:35;;;;;;;;;;;;;;;;;;7362230;19;1298;-61
2023/05/26 13:31:03;;;;;;;;;;;;;;;;;;7363372;19;815;-62
2023/05/26 13:33:31;;;;;;;;;;;;;;;;;;7362798;19;833;-63
2023/05/26 13:35:59;;;;;;;;;;;;;;;;;;7361531;19;851;-63
2023/05/26 13:38:27;;;;;;;;;;;;;;;;;;7361288;19;1850;-61
2023/05/26 13:40:55;;;;;;;;;;;;;;;;;;7362838;19;826;-62
2023/05/26 13:43:24;;;;;;;;;;;;;;;;;;7362364;19;841;-62
2023/05/26 13:45:52;;;;;;;;;;;;;;;;;;7362626;19;846;-62
2023/05/26 13:48:20;;;;;;;;;;;;;;;;;;7363003;19;1221;-63
2023/05/26 13:50:48;;;;;;;;;;;;;;;;;;7369553;19;807;-63
2023/05/26 13:53:16;;;;;;;;;;;;;;;;;;7369441;19;767;-63
2023/05/26 13:55:45;;;;;;;;;;;;;;;;;;7369926;19;873;-62
2023/05/26 13:58:14;;;;;;;;;;;;;;;;;;7367390;19;1239;-62
2023/05/26 14:00:42;;;;;;;;;;;;;;;;;;7366655;19;1908;-60
2023/05/26 14:03:10;;;;;;;;;;;;;;;;;;7369227;19;819;-63
2023/05/26 14:05:38;;;;;;;;;;;;;;;;;;7369843;19;835;-62
2023/05/26 14:08:07;;;;;;;;;;;;;;;;;;7366756;19;1274;-60
2023/05/26 14:10:35;;;;;;;;;;;;;;;;;;7369479;19;760;-61
2023/05/26 14:13:03;;;;;;;;;;;;;;;;;;7369033;19;1026;-61
2023/05/26 14:15:31;;;;;;;;;;;;;;;;;;7369660;19;789;-62
2023/05/26 14:17:59;;;;;;;;;;;;;;;;;;7367821;19;1348;-61
2023/05/26 14:20:28;;;;;;;;;;;;;;;;;;7366911;19;1855;-63
2023/05/26 14:22:56;;;;;;;;;;;;;;;;;;7369263;19;887;-62
2023/05/26 14:25:24;;;;;;;;;;;;;;;;;;7368708;19;795;-60
2023/05/26 14:27:52;;;;;;;;;;;;;;;;;;7367603;19;1262;-62
2023/05/26 14:30:20;;;;;;;;;;;;;;;;;;7368840;19;813;-62
2023/05/26 14:32:49;;;;;;;;;;;;;;;;;;7367861;19;786;-60
2023/05/26 14:35:17;;;;;;;;;;;;;;;;;;7368962;19;823;-60
2023/05/26 14:37:45;;;;;;;;;;;;;;;;;;7367006;19;1271;-62
2023/05/26 14:40:13;;;;;;;;;;;;;;;;;;7366874;19;1856;-59
2023/05/26 14:42:41;;;;;;;;;;;;;;;;;;7367435;19;882;-61
2023/05/26 14:45:09;;;;;;;;;;;;;;;;;;7368163;19;887;-60
2023/05/26 14:47:37;;;;;;;;;;;;;;;;;;7366900;19;1313;-61
2023/05/26 14:50:05;;;;;;;;;;;;;;;;;;7367481;19;818;-61
2023/05/26 14:52:34;;;;;;;;;;;;;;;;;;7367396;19;855;-63
2023/05/26 14:55:02;;;;;;;;;;;;;;;;;;7368235;19;766;-61
2023/05/26 14:57:30;;;;;;;;;;;;;;;;;;7367128;19;1269;-63
2023/05/26 14:59:58;;;;;;;;;;;;;;;;;;7364395;19;1829;-62
2023/05/26 15:02:26;;;;;;;;;;;;;;;;;;7366941;19;880;-62
2023/05/26 15:04:54;;;;;;;;;;;;;;;;;;7367067;19;860;-60
2023/05/26 15:07:23;;;;;;;;;;;;;;;;;;7367555;19;827;-62
2023/05/26 15:09:51;;;;;;;;;;;;;;;;;;7366333;19;1280;-63
2023/05/26 15:12:21;;;;;;;;;;;;;;;;;;7365557;19;747;-63
2023/05/26 15:14:49;;;;;;;;;;;;;;;;;;7366603;19;883;-62
2023/05/26 15:17:17;;;;;;;;;;;;;;;;;;7367480;19;822;-62
2023/05/26 15:19:45;;;;;;;;;;;;;;;;;;7363533;19;1868;-60
2023/05/26 15:22:13;;;;;;;;;;;;;;;;;;7366378;19;878;-61
2023/05/26 15:24:41;;;;;;;;;;;;;;;;;;7365852;19;810;-61
2023/05/26 15:27:10;;;;;;;;;;;;;;;;;;7366790;19;820;-62
2023/05/26 15:29:41;;;;;;;;;;;;;;;;;;7362974;19;1294;-62
2023/05/26 15:32:09;;;;;;;;;;;;;;;;;;7365817;19;799;-64
2023/05/26 15:34:37;;;;;;;;;;;;;;;;;;7366754;19;877;-62
2023/05/26 15:37:05;;;;;;;;;;;;;;;;;;7366470;19;802;-59
2023/05/26 15:39:34;;;;;;;;;;;;;;;;;;7363306;19;1846;-62
2023/05/26 15:42:02;;;;;;;;;;;;;;;;;;7366216;19;798;-62
2023/05/26 15:44:31;;;;;;;;;;;;;;;;;;7366630;19;851;-61
2023/05/26 15:46:59;;;;;;;;;;;;;;;;;;7366713;19;856;-61
2023/05/26 15:49:27;;;;;;;;;;;;;;;;;;7363423;19;1250;-61
2023/05/26 15:51:55;;;;;;;;;;;;;;;;;;7365371;19;834;-63
2023/05/26 15:54:23;;;;;;;;;;;;;;;;;;7365786;19;852;-60
2023/05/26 15:56:51;;;;;;;;;;;;;;;;;;7365898;19;799;-60
2023/05/26 15:59:19;;;;;;;;;;;;;;;;;;7362466;19;1864;-63
2023/05/26 16:01:48;;;;;;;;;;;;;;;;;;7364550;19;803;-63
2023/05/26 16:04:16;;;;;;;;;;;;;;;;;;7365733;19;858;-63
2023/05/26 16:06:44;;;;;;;;;;;;;;;;;;7365084;19;783;-62
2023/05/26 16:09:13;;;;;;;;;;;;;;;;;;7362575;19;1266;-63
2023/05/26 16:11:41;;;;;;;;;;;;;;;;;;7362674;19;870;-61
2023/05/26 16:14:09;;;;;;;;;;;;;;;;;;7365573;19;873;-63
2023/05/26 16:16:37;;;;;;;;;;;;;;;;;;7365963;19;792;-62
2023/05/26 16:19:06;;;;;;;;;;;;;;;;;;7362978;19;1849;-63
2023/05/26 16:21:34;;;;;;;;;;;;;;;;;;7365760;19;874;-64
2023/05/26 16:24:03;;;;;;;;;;;;;;;;;;7365295;19;867;-63
2023/05/26 16:26:31;;;;;;;;;;;;;;;;;;7365601;19;792;-63
2023/05/26 16:29:00;;;;;;;;;;;;;;;;;;7362633;19;1351;-63
2023/05/26 16:31:28;;;;;;;;;;;;;;;;;;7365207;19;767;-62
2023/05/26 16:33:56;;;;;;;;;;;;;;;;;;7365680;19;855;-62
2023/05/26 16:36:25;;;;;;;;;;;;;;;;;;7364095;19;854;-64
2023/05/26 16:38:53;;;;;;;;;;;;;;;;;;7363251;19;1342;-63
2023/05/26 16:41:21;;;;;;;;;;;;;;;;;;7361526;19;1838;-63
2023/05/26 16:43:49;;;;;;;;;;;;;;;;;;7365340;19;862;-62
2023/05/26 16:46:17;;;;;;;;;;;;;;;;;;7366035;19;810;-64
2023/05/26 16:48:45;;;;;;;;;;;;;;;;;;7363555;19;1249;-64
2023/05/26 16:51:13;;;;;;;;;;;;;;;;;;7364593;19;818;-64
2023/05/26 16:53:41;;;;;;;;;;;;;;;;;;7365292;19;857;-64
2023/05/26 16:56:10;;;;;;;;;;;;;;;;;;7364871;19;1017;-64
2023/05/26 16:58:38;;;;;;;;;;;;;;;;;;7361772;19;1238;-63
2023/05/26 17:01:06;;;;;;;;;;;;;;;;;;7361612;19;1856;-63
2023/05/26 17:03:34;;;;;;;;;;;;;;;;;;7362964;19;1762;-64
2023/05/26 17:06:02;;;;;;;;;;;;;;;;;;7369604;19;1767;-63
2023/05/26 17:08:30;;;;;;;;;;;;;;;;;;7365308;19;1302;-63
2023/05/26 17:10:58;;;;;;;;;;;;;;;;;;7364304;19;2097;-64
2023/05/26 17:13:27;;;;;;;;;;;;;;;;;;7367315;19;1913;-62
2023/05/26 17:15:55;;;;;;;;;;;;;;;;;;7366365;19;1842;-63
2023/05/26 17:18:23;;;;;;;;;;;;;;;;;;7363360;19;2009;-65
2023/05/26 17:20:51;;;;;;;;;;;;;;;;;;7364291;19;1847;-61